sensor_id;sensor_type;location;lat;lon;timestamp;P1;durP1;ratioP1;P2;durP2;ratioP2
41229;SDS011;26964;50.428;19.218;2023-04-10T00:00:10;72.7;;;47.6;;
41229;SDS011;26964;50.428;19.218;2023-04-10T00:01:10;67.4;;;44.3;;
41229;SDS011;26964;50.428;19.218;2023-04-10T00:02:10;73.2;;;46.1;;
41229;SDS011;26964;50.428;19.218;2023-04-10T00:03:10;70.1;;;45.5;;
41229;SDS011;26964;50.428;19.218;2023-04-10T00:04:10;67.8;;;44.4;;
41229;SDS011;26964;50.428;19.218;2023-04-10T00:05:10;69.9;;;45.3;;
41229;SDS011;26964;50.428;19.218;2023-04-10T00:06:10;72.5;;;45.8;;
41229;SDS011;26964;50.428;19.218;2023-04-10T00:07:10;70.3;;;44.1;;
41229;SDS011;26964;50.428;19.218;2023-04-10T00:08:10;69.4;;;45.2;;
41229;SDS011;26964;50.428;19.218;2023-04-10T00:09:10;70.0;;;44.6;;
41229;SDS011;26964;50.428;19.218;2023-04-10T00:10:10;69.5;;;44.0;;
41229;SDS011;26964;50.428;19.218;2023-04-10T00:11:10;70.6;;;44.4;;
41229;SDS011;26964;50.428;19.218;2023-04-10T00:12:10;67.7;;;45.6;;
41229;SDS011;26964;50.428;19.218;2023-04-10T00:13:10;71.6;;;46.0;;
41229;SDS011;26964;50.428;19.218;2023-04-10T00:14:10;69.5;;;45.4;;
41229;SDS011;26964;50.428;19.218;2023-04-10T00:15:10;70.5;;;45.1;;
41229;SDS011;26964;50.428;19.218;2023-04-10T00:16:10;71.9;;;44.4;;
41229;SDS011;26964;50.428;19.218;2023-04-10T00:17:10;69.3;;;44.5;;
41229;SDS011;26964;50.428;19.218;2023-04-10T00:18:10;71.2;;;46.0;;
41229;SDS011;26964;50.428;19.218;2023-04-10T00:19:10;82.6;;;52.1;;
41229;SDS011;26964;50.428;19.218;2023-04-10T00:20:10;71.9;;;44.8;;
41229;SDS011;26964;50.428;19.218;2023-04-10T00:21:10;76.0;;;46.8;;
41229;SDS011;26964;50.428;19.218;2023-04-10T00:22:10;76.5;;;48.6;;
41229;SDS011;26964;50.428;19.218;2023-04-10T00:23:10;75.2;;;47.5;;
41229;SDS011;26964;50.428;19.218;2023-04-10T00:24:10;76.4;;;50.0;;
41229;SDS011;26964;50.428;19.218;2023-04-10T00:25:10;77.6;;;49.2;;
41229;SDS011;26964;50.428;19.218;2023-04-10T00:26:10;74.2;;;46.5;;
41229;SDS011;26964;50.428;19.218;2023-04-10T00:27:10;74.1;;;48.5;;
41229;SDS011;26964;50.428;19.218;2023-04-10T00:28:10;71.9;;;46.1;;
41229;SDS011;26964;50.428;19.218;2023-04-10T00:29:10;75.9;;;47.8;;
41229;SDS011;26964;50.428;19.218;2023-04-10T00:30:10;71.9;;;46.4;;
41229;SDS011;26964;50.428;19.218;2023-04-10T00:31:10;80.1;;;49.0;;
41229;SDS011;26964;50.428;19.218;2023-04-10T00:32:10;74.4;;;47.8;;
41229;SDS011;26964;50.428;19.218;2023-04-10T00:33:10;74.8;;;47.1;;
41229;SDS011;26964;50.428;19.218;2023-04-10T00:34:10;78.2;;;48.3;;
41229;SDS011;26964;50.428;19.218;2023-04-10T00:35:10;71.6;;;46.7;;
41229;SDS011;26964;50.428;19.218;2023-04-10T00:36:10;84.3;;;51.7;;
41229;SDS011;26964;50.428;19.218;2023-04-10T00:37:10;77.2;;;47.2;;
41229;SDS011;26964;50.428;19.218;2023-04-10T00:38:10;75.9;;;48.6;;
41229;SDS011;26964;50.428;19.218;2023-04-10T00:39:10;77.4;;;47.8;;
41229;SDS011;26964;50.428;19.218;2023-04-10T00:40:10;73.8;;;47.3;;
41229;SDS011;26964;50.428;19.218;2023-04-10T00:41:10;74.0;;;47.1;;
41229;SDS011;26964;50.428;19.218;2023-04-10T00:42:10;77.5;;;46.7;;
41229;SDS011;26964;50.428;19.218;2023-04-10T00:43:10;77.1;;;48.2;;
41229;SDS011;26964;50.428;19.218;2023-04-10T00:44:10;79.1;;;49.3;;
41229;SDS011;26964;50.428;19.218;2023-04-10T00:45:10;83.5;;;49.3;;
41229;SDS011;26964;50.428;19.218;2023-04-10T00:46:10;83.0;;;50.5;;
41229;SDS011;26964;50.428;19.218;2023-04-10T00:47:10;81.1;;;48.7;;
41229;SDS011;26964;50.428;19.218;2023-04-10T00:48:10;89.9;;;51.9;;
41229;SDS011;26964;50.428;19.218;2023-04-10T00:49:10;84.2;;;50.4;;
41229;SDS011;26964;50.428;19.218;2023-04-10T00:50:10;83.0;;;49.3;;
41229;SDS011;26964;50.428;19.218;2023-04-10T00:51:10;86.2;;;51.2;;
41229;SDS011;26964;50.428;19.218;2023-04-10T00:52:10;91.7;;;52.9;;
41229;SDS011;26964;50.428;19.218;2023-04-10T00:53:10;84.7;;;51.2;;
41229;SDS011;26964;50.428;19.218;2023-04-10T00:54:10;93.1;;;51.6;;
41229;SDS011;26964;50.428;19.218;2023-04-10T00:55:10;92.8;;;53.2;;
41229;SDS011;26964;50.428;19.218;2023-04-10T00:56:10;88.5;;;51.0;;
41229;SDS011;26964;50.428;19.218;2023-04-10T00:57:10;91.8;;;53.9;;
41229;SDS011;26964;50.428;19.218;2023-04-10T00:58:10;91.0;;;52.7;;
41229;SDS011;26964;50.428;19.218;2023-04-10T00:59:10;93.6;;;53.8;;
41229;SDS011;26964;50.428;19.218;2023-04-10T01:00:10;92.3;;;54.5;;
41229;SDS011;26964;50.428;19.218;2023-04-10T01:01:10;91.0;;;53.2;;
41229;SDS011;26964;50.428;19.218;2023-04-10T01:02:10;95.3;;;53.5;;
41229;SDS011;26964;50.428;19.218;2023-04-10T01:03:10;93.3;;;53.7;;
41229;SDS011;26964;50.428;19.218;2023-04-10T01:04:11;95.8;;;54.5;;
41229;SDS011;26964;50.428;19.218;2023-04-10T01:05:10;100.1;;;56.1;;
41229;SDS011;26964;50.428;19.218;2023-04-10T01:06:12;97.9;;;54.7;;
41229;SDS011;26964;50.428;19.218;2023-04-10T01:07:13;100.3;;;54.0;;
41229;SDS011;26964;50.428;19.218;2023-04-10T01:08:11;95.4;;;54.5;;
41229;SDS011;26964;50.428;19.218;2023-04-10T01:09:12;99.5;;;54.5;;
41229;SDS011;26964;50.428;19.218;2023-04-10T01:10:16;101.7;;;57.3;;
41229;SDS011;26964;50.428;19.218;2023-04-10T01:11:12;99.4;;;56.7;;
41229;SDS011;26964;50.428;19.218;2023-04-10T01:13:14;103.6;;;56.9;;
41229;SDS011;26964;50.428;19.218;2023-04-10T01:14:11;100.3;;;55.2;;
41229;SDS011;26964;50.428;19.218;2023-04-10T01:15:12;110.7;;;59.6;;
41229;SDS011;26964;50.428;19.218;2023-04-10T01:16:12;104.1;;;57.1;;
41229;SDS011;26964;50.428;19.218;2023-04-10T01:17:12;102.3;;;56.8;;
41229;SDS011;26964;50.428;19.218;2023-04-10T01:18:12;105.5;;;57.1;;
41229;SDS011;26964;50.428;19.218;2023-04-10T01:19:12;106.0;;;58.0;;
41229;SDS011;26964;50.428;19.218;2023-04-10T01:20:11;101.8;;;56.5;;
41229;SDS011;26964;50.428;19.218;2023-04-10T01:21:10;100.2;;;55.7;;
41229;SDS011;26964;50.428;19.218;2023-04-10T01:22:10;100.6;;;56.4;;
41229;SDS011;26964;50.428;19.218;2023-04-10T01:23:19;108.1;;;57.3;;
41229;SDS011;26964;50.428;19.218;2023-04-10T01:26:10;104.8;;;57.1;;
41229;SDS011;26964;50.428;19.218;2023-04-10T01:27:11;106.9;;;59.9;;
41229;SDS011;26964;50.428;19.218;2023-04-10T01:29:10;112.2;;;63.7;;
41229;SDS011;26964;50.428;19.218;2023-04-10T01:30:11;108.6;;;60.2;;
41229;SDS011;26964;50.428;19.218;2023-04-10T01:31:12;109.3;;;60.9;;
41229;SDS011;26964;50.428;19.218;2023-04-10T01:32:11;108.4;;;60.7;;
41229;SDS011;26964;50.428;19.218;2023-04-10T01:33:11;102.4;;;58.7;;
41229;SDS011;26964;50.428;19.218;2023-04-10T01:34:14;106.4;;;58.6;;
41229;SDS011;26964;50.428;19.218;2023-04-10T01:35:10;108.5;;;58.5;;
41229;SDS011;26964;50.428;19.218;2023-04-10T01:36:10;114.2;;;59.6;;
41229;SDS011;26964;50.428;19.218;2023-04-10T01:37:11;102.6;;;58.1;;
41229;SDS011;26964;50.428;19.218;2023-04-10T01:38:10;102.4;;;56.3;;
41229;SDS011;26964;50.428;19.218;2023-04-10T01:39:10;105.1;;;56.3;;
41229;SDS011;26964;50.428;19.218;2023-04-10T01:40:15;102.7;;;56.9;;
41229;SDS011;26964;50.428;19.218;2023-04-10T01:41:10;111.1;;;58.4;;
41229;SDS011;26964;50.428;19.218;2023-04-10T01:42:22;103.4;;;59.1;;
41229;SDS011;26964;50.428;19.218;2023-04-10T01:43:23;84.9;;;46.6;;
41229;SDS011;26964;50.428;19.218;2023-04-10T01:44:23;114.0;;;63.5;;
41229;SDS011;26964;50.428;19.218;2023-04-10T01:45:24;116.2;;;63.9;;
41229;SDS011;26964;50.428;19.218;2023-04-10T01:46:23;110.8;;;56.7;;
41229;SDS011;26964;50.428;19.218;2023-04-10T01:47:23;113.1;;;60.2;;
41229;SDS011;26964;50.428;19.218;2023-04-10T01:48:22;110.2;;;60.1;;
41229;SDS011;26964;50.428;19.218;2023-04-10T01:49:22;101.7;;;58.8;;
41229;SDS011;26964;50.428;19.218;2023-04-10T01:50:23;110.6;;;60.7;;
41229;SDS011;26964;50.428;19.218;2023-04-10T01:51:23;109.4;;;62.6;;
41229;SDS011;26964;50.428;19.218;2023-04-10T01:52:22;113.5;;;63.9;;
41229;SDS011;26964;50.428;19.218;2023-04-10T01:53:22;113.3;;;62.8;;
41229;SDS011;26964;50.428;19.218;2023-04-10T01:54:23;108.5;;;61.2;;
41229;SDS011;26964;50.428;19.218;2023-04-10T01:55:22;108.7;;;60.9;;
41229;SDS011;26964;50.428;19.218;2023-04-10T01:56:22;109.1;;;60.0;;
41229;SDS011;26964;50.428;19.218;2023-04-10T01:57:22;124.2;;;66.8;;
41229;SDS011;26964;50.428;19.218;2023-04-10T01:58:23;117.9;;;63.2;;
41229;SDS011;26964;50.428;19.218;2023-04-10T01:59:22;117.2;;;62.0;;
41229;SDS011;26964;50.428;19.218;2023-04-10T02:00:22;145.0;;;84.7;;
41229;SDS011;26964;50.428;19.218;2023-04-10T02:01:22;227.1;;;155.9;;
41229;SDS011;26964;50.428;19.218;2023-04-10T02:02:22;197.1;;;137.2;;
41229;SDS011;26964;50.428;19.218;2023-04-10T02:03:22;150.7;;;93.2;;
41229;SDS011;26964;50.428;19.218;2023-04-10T02:04:22;132.1;;;73.6;;
41229;SDS011;26964;50.428;19.218;2023-04-10T02:05:23;125.3;;;64.4;;
41229;SDS011;26964;50.428;19.218;2023-04-10T02:06:25;117.1;;;60.4;;
41229;SDS011;26964;50.428;19.218;2023-04-10T02:07:24;128.4;;;66.2;;
41229;SDS011;26964;50.428;19.218;2023-04-10T02:08:25;123.6;;;61.6;;
41229;SDS011;26964;50.428;19.218;2023-04-10T02:09:24;121.8;;;61.6;;
41229;SDS011;26964;50.428;19.218;2023-04-10T02:10:24;115.0;;;60.2;;
41229;SDS011;26964;50.428;19.218;2023-04-10T02:11:25;123.0;;;64.7;;
41229;SDS011;26964;50.428;19.218;2023-04-10T02:12:25;142.6;;;63.8;;
41229;SDS011;26964;50.428;19.218;2023-04-10T02:13:22;152.6;;;71.0;;
41229;SDS011;26964;50.428;19.218;2023-04-10T02:14:25;109.6;;;60.0;;
41229;SDS011;26964;50.428;19.218;2023-04-10T02:15:23;119.5;;;58.3;;
41229;SDS011;26964;50.428;19.218;2023-04-10T02:16:22;126.3;;;59.1;;
41229;SDS011;26964;50.428;19.218;2023-04-10T02:17:27;111.5;;;58.8;;
41229;SDS011;26964;50.428;19.218;2023-04-10T02:18:22;112.2;;;58.1;;
41229;SDS011;26964;50.428;19.218;2023-04-10T02:19:24;132.8;;;58.0;;
41229;SDS011;26964;50.428;19.218;2023-04-10T02:20:23;114.6;;;54.8;;
41229;SDS011;26964;50.428;19.218;2023-04-10T02:21:22;124.1;;;56.2;;
41229;SDS011;26964;50.428;19.218;2023-04-10T02:22:22;125.5;;;58.8;;
41229;SDS011;26964;50.428;19.218;2023-04-10T02:23:22;118.9;;;56.0;;
41229;SDS011;26964;50.428;19.218;2023-04-10T02:24:22;129.0;;;56.7;;
41229;SDS011;26964;50.428;19.218;2023-04-10T02:25:22;122.6;;;58.4;;
41229;SDS011;26964;50.428;19.218;2023-04-10T02:26:23;140.4;;;60.5;;
41229;SDS011;26964;50.428;19.218;2023-04-10T02:28:21;128.9;;;61.7;;
41229;SDS011;26964;50.428;19.218;2023-04-10T02:29:22;128.9;;;57.4;;
41229;SDS011;26964;50.428;19.218;2023-04-10T02:30:22;124.1;;;57.5;;
41229;SDS011;26964;50.428;19.218;2023-04-10T02:31:23;106.4;;;58.3;;
41229;SDS011;26964;50.428;19.218;2023-04-10T02:32:22;131.8;;;57.4;;
41229;SDS011;26964;50.428;19.218;2023-04-10T02:33:22;126.9;;;59.8;;
41229;SDS011;26964;50.428;19.218;2023-04-10T02:34:22;113.6;;;58.2;;
41229;SDS011;26964;50.428;19.218;2023-04-10T02:35:22;121.0;;;53.9;;
41229;SDS011;26964;50.428;19.218;2023-04-10T02:36:22;123.4;;;57.2;;
41229;SDS011;26964;50.428;19.218;2023-04-10T02:37:22;112.9;;;55.1;;
41229;SDS011;26964;50.428;19.218;2023-04-10T02:38:22;108.0;;;56.2;;
41229;SDS011;26964;50.428;19.218;2023-04-10T02:39:22;131.6;;;58.1;;
41229;SDS011;26964;50.428;19.218;2023-04-10T02:40:22;131.8;;;58.6;;
41229;SDS011;26964;50.428;19.218;2023-04-10T02:41:22;114.0;;;57.1;;
41229;SDS011;26964;50.428;19.218;2023-04-10T02:42:22;128.6;;;58.5;;
41229;SDS011;26964;50.428;19.218;2023-04-10T02:43:22;142.6;;;61.1;;
41229;SDS011;26964;50.428;19.218;2023-04-10T02:44:22;120.1;;;57.5;;
41229;SDS011;26964;50.428;19.218;2023-04-10T02:45:22;115.1;;;57.0;;
41229;SDS011;26964;50.428;19.218;2023-04-10T02:46:22;112.4;;;56.0;;
41229;SDS011;26964;50.428;19.218;2023-04-10T02:47:22;112.9;;;60.6;;
41229;SDS011;26964;50.428;19.218;2023-04-10T02:48:22;119.4;;;60.3;;
41229;SDS011;26964;50.428;19.218;2023-04-10T02:49:22;113.6;;;55.8;;
41229;SDS011;26964;50.428;19.218;2023-04-10T02:50:22;124.1;;;55.6;;
41229;SDS011;26964;50.428;19.218;2023-04-10T02:51:22;129.2;;;57.5;;
41229;SDS011;26964;50.428;19.218;2023-04-10T02:52:22;126.4;;;54.9;;
41229;SDS011;26964;50.428;19.218;2023-04-10T02:53:22;118.5;;;54.4;;
41229;SDS011;26964;50.428;19.218;2023-04-10T02:54:22;113.3;;;53.0;;
41229;SDS011;26964;50.428;19.218;2023-04-10T02:55:22;102.6;;;50.3;;
41229;SDS011;26964;50.428;19.218;2023-04-10T02:56:22;107.7;;;53.4;;
41229;SDS011;26964;50.428;19.218;2023-04-10T02:57:22;102.9;;;52.6;;
41229;SDS011;26964;50.428;19.218;2023-04-10T02:58:22;100.4;;;52.5;;
41229;SDS011;26964;50.428;19.218;2023-04-10T02:59:22;105.0;;;53.8;;
41229;SDS011;26964;50.428;19.218;2023-04-10T03:00:21;101.8;;;53.2;;
41229;SDS011;26964;50.428;19.218;2023-04-10T03:01:21;99.9;;;52.6;;
41229;SDS011;26964;50.428;19.218;2023-04-10T03:02:22;99.3;;;53.1;;
41229;SDS011;26964;50.428;19.218;2023-04-10T03:03:21;109.3;;;52.8;;
41229;SDS011;26964;50.428;19.218;2023-04-10T03:04:21;98.4;;;52.0;;
41229;SDS011;26964;50.428;19.218;2023-04-10T03:05:21;99.8;;;51.9;;
41229;SDS011;26964;50.428;19.218;2023-04-10T03:06:22;98.7;;;52.6;;
41229;SDS011;26964;50.428;19.218;2023-04-10T03:07:22;103.2;;;58.8;;
41229;SDS011;26964;50.428;19.218;2023-04-10T03:08:21;100.2;;;55.8;;
41229;SDS011;26964;50.428;19.218;2023-04-10T03:09:22;98.0;;;54.5;;
41229;SDS011;26964;50.428;19.218;2023-04-10T03:10:21;105.8;;;56.2;;
41229;SDS011;26964;50.428;19.218;2023-04-10T03:11:22;97.0;;;54.1;;
41229;SDS011;26964;50.428;19.218;2023-04-10T03:12:22;115.0;;;63.6;;
41229;SDS011;26964;50.428;19.218;2023-04-10T03:13:22;124.5;;;71.0;;
41229;SDS011;26964;50.428;19.218;2023-04-10T03:14:22;110.8;;;62.1;;
41229;SDS011;26964;50.428;19.218;2023-04-10T03:15:21;106.0;;;60.0;;
41229;SDS011;26964;50.428;19.218;2023-04-10T03:16:22;98.0;;;55.3;;
41229;SDS011;26964;50.428;19.218;2023-04-10T03:17:22;101.2;;;58.3;;
41229;SDS011;26964;50.428;19.218;2023-04-10T03:18:21;107.0;;;58.2;;
41229;SDS011;26964;50.428;19.218;2023-04-10T03:19:21;88.8;;;52.3;;
41229;SDS011;26964;50.428;19.218;2023-04-10T03:20:22;94.2;;;51.7;;
41229;SDS011;26964;50.428;19.218;2023-04-10T03:21:21;105.9;;;59.3;;
41229;SDS011;26964;50.428;19.218;2023-04-10T03:22:22;98.1;;;54.4;;
41229;SDS011;26964;50.428;19.218;2023-04-10T03:23:22;109.9;;;61.7;;
41229;SDS011;26964;50.428;19.218;2023-04-10T03:24:21;102.8;;;57.7;;
41229;SDS011;26964;50.428;19.218;2023-04-10T03:25:21;98.5;;;56.4;;
41229;SDS011;26964;50.428;19.218;2023-04-10T03:26:22;97.1;;;53.9;;
41229;SDS011;26964;50.428;19.218;2023-04-10T03:27:21;101.4;;;56.2;;
41229;SDS011;26964;50.428;19.218;2023-04-10T03:28:22;98.0;;;53.2;;
41229;SDS011;26964;50.428;19.218;2023-04-10T03:29:22;110.0;;;61.6;;
41229;SDS011;26964;50.428;19.218;2023-04-10T03:30:22;111.2;;;67.6;;
41229;SDS011;26964;50.428;19.218;2023-04-10T03:31:22;106.9;;;64.7;;
41229;SDS011;26964;50.428;19.218;2023-04-10T03:32:22;108.6;;;62.4;;
41229;SDS011;26964;50.428;19.218;2023-04-10T03:33:22;111.8;;;68.1;;
41229;SDS011;26964;50.428;19.218;2023-04-10T03:34:22;147.4;;;97.5;;
41229;SDS011;26964;50.428;19.218;2023-04-10T03:35:22;101.3;;;58.1;;
41229;SDS011;26964;50.428;19.218;2023-04-10T03:36:22;100.6;;;55.6;;
41229;SDS011;26964;50.428;19.218;2023-04-10T03:37:22;101.4;;;59.0;;
41229;SDS011;26964;50.428;19.218;2023-04-10T03:38:21;117.9;;;73.1;;
41229;SDS011;26964;50.428;19.218;2023-04-10T03:39:22;97.5;;;55.6;;
41229;SDS011;26964;50.428;19.218;2023-04-10T03:40:22;110.5;;;65.6;;
41229;SDS011;26964;50.428;19.218;2023-04-10T03:41:22;153.0;;;99.0;;
41229;SDS011;26964;50.428;19.218;2023-04-10T03:42:22;128.9;;;82.4;;
41229;SDS011;26964;50.428;19.218;2023-04-10T03:43:23;107.2;;;65.5;;
41229;SDS011;26964;50.428;19.218;2023-04-10T03:44:21;102.5;;;60.4;;
41229;SDS011;26964;50.428;19.218;2023-04-10T03:45:22;91.2;;;53.0;;
41229;SDS011;26964;50.428;19.218;2023-04-10T03:46:21;110.5;;;61.7;;
41229;SDS011;26964;50.428;19.218;2023-04-10T03:47:22;100.0;;;57.5;;
41229;SDS011;26964;50.428;19.218;2023-04-10T03:48:21;108.9;;;65.7;;
41229;SDS011;26964;50.428;19.218;2023-04-10T03:49:21;108.9;;;64.1;;
41229;SDS011;26964;50.428;19.218;2023-04-10T03:50:22;95.6;;;54.2;;
41229;SDS011;26964;50.428;19.218;2023-04-10T03:51:22;113.2;;;66.0;;
41229;SDS011;26964;50.428;19.218;2023-04-10T03:52:22;110.9;;;67.0;;
41229;SDS011;26964;50.428;19.218;2023-04-10T03:53:21;103.0;;;60.1;;
41229;SDS011;26964;50.428;19.218;2023-04-10T03:54:21;97.4;;;54.8;;
41229;SDS011;26964;50.428;19.218;2023-04-10T03:55:21;96.5;;;54.2;;
41229;SDS011;26964;50.428;19.218;2023-04-10T03:56:22;89.1;;;50.4;;
41229;SDS011;26964;50.428;19.218;2023-04-10T03:57:22;106.0;;;66.2;;
41229;SDS011;26964;50.428;19.218;2023-04-10T03:58:22;123.4;;;76.2;;
41229;SDS011;26964;50.428;19.218;2023-04-10T03:59:21;102.7;;;59.6;;
41229;SDS011;26964;50.428;19.218;2023-04-10T04:00:23;90.2;;;51.7;;
41229;SDS011;26964;50.428;19.218;2023-04-10T04:01:21;107.8;;;66.9;;
41229;SDS011;26964;50.428;19.218;2023-04-10T04:02:21;91.2;;;53.0;;
41229;SDS011;26964;50.428;19.218;2023-04-10T04:03:21;91.5;;;52.7;;
41229;SDS011;26964;50.428;19.218;2023-04-10T04:04:22;92.2;;;52.9;;
41229;SDS011;26964;50.428;19.218;2023-04-10T04:05:22;114.9;;;65.0;;
41229;SDS011;26964;50.428;19.218;2023-04-10T04:06:22;113.6;;;63.4;;
41229;SDS011;26964;50.428;19.218;2023-04-10T04:07:21;105.1;;;59.1;;
41229;SDS011;26964;50.428;19.218;2023-04-10T04:08:21;95.7;;;54.4;;
41229;SDS011;26964;50.428;19.218;2023-04-10T04:09:21;97.9;;;55.6;;
41229;SDS011;26964;50.428;19.218;2023-04-10T04:10:21;93.0;;;53.2;;
41229;SDS011;26964;50.428;19.218;2023-04-10T04:11:21;94.8;;;52.7;;
41229;SDS011;26964;50.428;19.218;2023-04-10T04:12:21;86.8;;;49.9;;
41229;SDS011;26964;50.428;19.218;2023-04-10T04:13:21;87.6;;;49.7;;
41229;SDS011;26964;50.428;19.218;2023-04-10T04:14:21;87.4;;;47.6;;
41229;SDS011;26964;50.428;19.218;2023-04-10T04:15:21;85.8;;;46.8;;
41229;SDS011;26964;50.428;19.218;2023-04-10T04:16:21;88.6;;;47.5;;
41229;SDS011;26964;50.428;19.218;2023-04-10T04:17:21;82.0;;;46.2;;
41229;SDS011;26964;50.428;19.218;2023-04-10T04:18:21;80.6;;;47.8;;
41229;SDS011;26964;50.428;19.218;2023-04-10T04:19:21;86.7;;;47.9;;
41229;SDS011;26964;50.428;19.218;2023-04-10T04:20:21;85.3;;;48.1;;
41229;SDS011;26964;50.428;19.218;2023-04-10T04:21:22;86.2;;;48.1;;
41229;SDS011;26964;50.428;19.218;2023-04-10T04:22:21;91.8;;;50.8;;
41229;SDS011;26964;50.428;19.218;2023-04-10T04:23:21;86.6;;;49.1;;
41229;SDS011;26964;50.428;19.218;2023-04-10T04:24:21;89.4;;;49.8;;
41229;SDS011;26964;50.428;19.218;2023-04-10T04:25:21;87.5;;;48.2;;
41229;SDS011;26964;50.428;19.218;2023-04-10T04:26:21;85.0;;;47.8;;
41229;SDS011;26964;50.428;19.218;2023-04-10T04:27:21;91.5;;;50.4;;
41229;SDS011;26964;50.428;19.218;2023-04-10T04:28:21;86.3;;;48.8;;
41229;SDS011;26964;50.428;19.218;2023-04-10T04:29:21;86.4;;;49.2;;
41229;SDS011;26964;50.428;19.218;2023-04-10T04:30:21;88.9;;;49.0;;
41229;SDS011;26964;50.428;19.218;2023-04-10T04:31:21;87.4;;;49.3;;
41229;SDS011;26964;50.428;19.218;2023-04-10T04:32:22;84.6;;;47.6;;
41229;SDS011;26964;50.428;19.218;2023-04-10T04:33:21;87.4;;;49.5;;
41229;SDS011;26964;50.428;19.218;2023-04-10T04:34:21;88.4;;;49.4;;
41229;SDS011;26964;50.428;19.218;2023-04-10T04:35:21;92.2;;;51.1;;
41229;SDS011;26964;50.428;19.218;2023-04-10T04:36:21;84.1;;;48.2;;
41229;SDS011;26964;50.428;19.218;2023-04-10T04:37:21;88.5;;;50.0;;
41229;SDS011;26964;50.428;19.218;2023-04-10T04:38:21;91.1;;;49.4;;
41229;SDS011;26964;50.428;19.218;2023-04-10T04:39:21;86.2;;;49.6;;
41229;SDS011;26964;50.428;19.218;2023-04-10T04:40:21;88.2;;;49.3;;
41229;SDS011;26964;50.428;19.218;2023-04-10T04:41:21;92.2;;;52.0;;
41229;SDS011;26964;50.428;19.218;2023-04-10T04:42:21;88.1;;;49.7;;
41229;SDS011;26964;50.428;19.218;2023-04-10T04:43:21;92.5;;;51.1;;
41229;SDS011;26964;50.428;19.218;2023-04-10T04:44:21;83.1;;;48.2;;
41229;SDS011;26964;50.428;19.218;2023-04-10T04:45:21;89.7;;;49.9;;
41229;SDS011;26964;50.428;19.218;2023-04-10T04:46:21;93.3;;;50.8;;
41229;SDS011;26964;50.428;19.218;2023-04-10T04:47:21;88.9;;;49.4;;
41229;SDS011;26964;50.428;19.218;2023-04-10T04:48:21;90.7;;;51.2;;
41229;SDS011;26964;50.428;19.218;2023-04-10T04:49:21;89.8;;;48.9;;
41229;SDS011;26964;50.428;19.218;2023-04-10T04:50:21;85.0;;;48.1;;
41229;SDS011;26964;50.428;19.218;2023-04-10T04:51:21;93.5;;;51.3;;
41229;SDS011;26964;50.428;19.218;2023-04-10T04:52:21;94.6;;;51.8;;
41229;SDS011;26964;50.428;19.218;2023-04-10T04:53:21;90.3;;;50.3;;
41229;SDS011;26964;50.428;19.218;2023-04-10T04:54:21;94.3;;;50.4;;
41229;SDS011;26964;50.428;19.218;2023-04-10T04:55:21;94.0;;;53.6;;
41229;SDS011;26964;50.428;19.218;2023-04-10T04:56:21;92.3;;;50.7;;
41229;SDS011;26964;50.428;19.218;2023-04-10T04:57:21;93.6;;;51.5;;
41229;SDS011;26964;50.428;19.218;2023-04-10T04:58:21;92.4;;;52.4;;
41229;SDS011;26964;50.428;19.218;2023-04-10T04:59:21;93.4;;;50.8;;
41229;SDS011;26964;50.428;19.218;2023-04-10T05:00:21;89.6;;;49.4;;
41229;SDS011;26964;50.428;19.218;2023-04-10T05:01:21;91.0;;;49.7;;
41229;SDS011;26964;50.428;19.218;2023-04-10T05:02:21;88.9;;;49.9;;
41229;SDS011;26964;50.428;19.218;2023-04-10T05:03:21;86.8;;;49.9;;
41229;SDS011;26964;50.428;19.218;2023-04-10T05:04:21;83.5;;;47.5;;
41229;SDS011;26964;50.428;19.218;2023-04-10T05:05:21;87.2;;;50.4;;
41229;SDS011;26964;50.428;19.218;2023-04-10T05:06:21;88.0;;;48.5;;
41229;SDS011;26964;50.428;19.218;2023-04-10T05:07:22;93.2;;;50.5;;
41229;SDS011;26964;50.428;19.218;2023-04-10T05:08:21;87.6;;;48.5;;
41229;SDS011;26964;50.428;19.218;2023-04-10T05:09:21;97.2;;;51.7;;
41229;SDS011;26964;50.428;19.218;2023-04-10T05:10:21;90.1;;;50.0;;
41229;SDS011;26964;50.428;19.218;2023-04-10T05:11:21;91.1;;;49.5;;
41229;SDS011;26964;50.428;19.218;2023-04-10T05:12:21;89.1;;;49.6;;
41229;SDS011;26964;50.428;19.218;2023-04-10T05:13:21;92.5;;;51.5;;
41229;SDS011;26964;50.428;19.218;2023-04-10T05:14:21;97.8;;;50.7;;
41229;SDS011;26964;50.428;19.218;2023-04-10T05:15:21;91.0;;;51.3;;
41229;SDS011;26964;50.428;19.218;2023-04-10T05:16:21;88.1;;;50.1;;
41229;SDS011;26964;50.428;19.218;2023-04-10T05:17:21;96.5;;;52.5;;
41229;SDS011;26964;50.428;19.218;2023-04-10T05:18:21;92.2;;;51.7;;
41229;SDS011;26964;50.428;19.218;2023-04-10T05:19:21;93.5;;;52.0;;
41229;SDS011;26964;50.428;19.218;2023-04-10T05:20:21;91.9;;;52.7;;
41229;SDS011;26964;50.428;19.218;2023-04-10T05:21:21;96.3;;;53.6;;
41229;SDS011;26964;50.428;19.218;2023-04-10T05:22:21;96.1;;;51.9;;
41229;SDS011;26964;50.428;19.218;2023-04-10T05:23:21;91.8;;;52.2;;
41229;SDS011;26964;50.428;19.218;2023-04-10T05:24:21;95.6;;;53.0;;
41229;SDS011;26964;50.428;19.218;2023-04-10T05:25:21;94.8;;;51.5;;
41229;SDS011;26964;50.428;19.218;2023-04-10T05:26:22;94.8;;;51.6;;
41229;SDS011;26964;50.428;19.218;2023-04-10T05:27:21;101.5;;;54.4;;
41229;SDS011;26964;50.428;19.218;2023-04-10T05:28:22;97.7;;;54.1;;
41229;SDS011;26964;50.428;19.218;2023-04-10T05:29:21;105.8;;;56.6;;
41229;SDS011;26964;50.428;19.218;2023-04-10T05:30:21;98.3;;;53.9;;
41229;SDS011;26964;50.428;19.218;2023-04-10T05:31:21;92.3;;;51.1;;
41229;SDS011;26964;50.428;19.218;2023-04-10T05:32:21;95.0;;;51.0;;
41229;SDS011;26964;50.428;19.218;2023-04-10T05:33:21;94.5;;;51.9;;
41229;SDS011;26964;50.428;19.218;2023-04-10T05:34:21;94.7;;;51.1;;
41229;SDS011;26964;50.428;19.218;2023-04-10T05:35:21;96.6;;;52.7;;
41229;SDS011;26964;50.428;19.218;2023-04-10T05:36:21;88.7;;;51.0;;
41229;SDS011;26964;50.428;19.218;2023-04-10T05:37:21;97.8;;;54.2;;
41229;SDS011;26964;50.428;19.218;2023-04-10T05:38:21;98.6;;;51.7;;
41229;SDS011;26964;50.428;19.218;2023-04-10T05:39:21;95.5;;;53.3;;
41229;SDS011;26964;50.428;19.218;2023-04-10T05:40:21;89.7;;;50.1;;
41229;SDS011;26964;50.428;19.218;2023-04-10T05:41:21;91.9;;;49.6;;
41229;SDS011;26964;50.428;19.218;2023-04-10T05:42:21;91.4;;;50.1;;
41229;SDS011;26964;50.428;19.218;2023-04-10T05:43:21;94.9;;;50.9;;
41229;SDS011;26964;50.428;19.218;2023-04-10T05:44:21;93.0;;;50.2;;
41229;SDS011;26964;50.428;19.218;2023-04-10T05:45:21;93.9;;;52.4;;
41229;SDS011;26964;50.428;19.218;2023-04-10T05:46:21;91.0;;;51.2;;
41229;SDS011;26964;50.428;19.218;2023-04-10T05:47:21;96.6;;;52.6;;
41229;SDS011;26964;50.428;19.218;2023-04-10T05:48:21;96.9;;;53.0;;
41229;SDS011;26964;50.428;19.218;2023-04-10T05:49:21;98.1;;;51.3;;
41229;SDS011;26964;50.428;19.218;2023-04-10T05:50:21;96.6;;;52.1;;
41229;SDS011;26964;50.428;19.218;2023-04-10T05:51:21;90.2;;;49.8;;
41229;SDS011;26964;50.428;19.218;2023-04-10T05:52:21;93.8;;;51.9;;
41229;SDS011;26964;50.428;19.218;2023-04-10T05:53:26;97.0;;;52.1;;
41229;SDS011;26964;50.428;19.218;2023-04-10T05:54:21;101.0;;;52.6;;
41229;SDS011;26964;50.428;19.218;2023-04-10T05:55:21;92.0;;;49.7;;
41229;SDS011;26964;50.428;19.218;2023-04-10T05:56:21;90.9;;;50.1;;
41229;SDS011;26964;50.428;19.218;2023-04-10T05:57:22;95.8;;;52.4;;
41229;SDS011;26964;50.428;19.218;2023-04-10T05:58:21;96.2;;;52.8;;